sensor_id;sensor_type;location;lat;lon;timestamp;temperature;humidity
6098;DHT22;3077;50.922;6.584;2023-07-31T00:01:23;17.00;99.90
6098;DHT22;3077;50.922;6.584;2023-07-31T00:03:49;17.00;99.90
6098;DHT22;3077;50.922;6.584;2023-07-31T00:06:14;17.00;99.90
6098;DHT22;3077;50.922;6.584;2023-07-31T00:08:40;17.00;99.90
6098;DHT22;3077;50.922;6.584;2023-07-31T00:11:05;17.10;99.90
6098;DHT22;3077;50.922;6.584;2023-07-31T00:13:31;17.10;99.90
6098;DHT22;3077;50.922;6.584;2023-07-31T00:15:57;17.20;99.90
6098;DHT22;3077;50.922;6.584;2023-07-31T00:18:22;17.20;99.90
6098;DHT22;3077;50.922;6.584;2023-07-31T00:20:48;17.20;99.90
6098;DHT22;3077;50.922;6.584;2023-07-31T00:23:13;17.20;99.90
6098;DHT22;3077;50.922;6.584;2023-07-31T00:25:39;17.20;99.90
6098;DHT22;3077;50.922;6.584;2023-07-31T00:28:05;17.20;99.90
6098;DHT22;3077;50.922;6.584;2023-07-31T00:30:31;17.20;99.90
6098;DHT22;3077;50.922;6.584;2023-07-31T00:32:57;17.20;99.90
6098;DHT22;3077;50.922;6.584;2023-07-31T00:35:22;17.20;99.90
6098;DHT22;3077;50.922;6.584;2023-07-31T00:37:48;17.20;99.90
6098;DHT22;3077;50.922;6.584;2023-07-31T00:40:14;17.20;99.90
6098;DHT22;3077;50.922;6.584;2023-07-31T00:42:39;17.20;99.90
6098;DHT22;3077;50.922;6.584;2023-07-31T00:45:05;17.30;99.90
6098;DHT22;3077;50.922;6.584;2023-07-31T00:47:31;17.30;99.90
6098;DHT22;3077;50.922;6.584;2023-07-31T00:49:57;17.30;99.90
6098;DHT22;3077;50.922;6.584;2023-07-31T00:52:23;17.40;99.90
6098;DHT22;3077;50.922;6.584;2023-07-31T00:54:49;17.40;99.90
6098;DHT22;3077;50.922;6.584;2023-07-31T00:57:15;17.40;99.90
6098;DHT22;3077;50.922;6.584;2023-07-31T00:59:41;17.40;99.90
6098;DHT22;3077;50.922;6.584;2023-07-31T01:02:06;17.40;99.90
6098;DHT22;3077;50.922;6.584;2023-07-31T01:04:32;17.40;99.90
6098;DHT22;3077;50.922;6.584;2023-07-31T01:07:09;17.40;99.90
6098;DHT22;3077;50.922;6.584;2023-07-31T01:10:02;17.40;99.90
6098;DHT22;3077;50.922;6.584;2023-07-31T01:12:29;17.40;99.90
6098;DHT22;3077;50.922;6.584;2023-07-31T01:15:07;17.40;99.90
6098;DHT22;3077;50.922;6.584;2023-07-31T01:17:36;17.40;99.90
6098;DHT22;3077;50.922;6.584;2023-07-31T01:20:05;17.40;99.90
6098;DHT22;3077;50.922;6.584;2023-07-31T01:28:07;17.60;99.90
6098;DHT22;3077;50.922;6.584;2023-07-31T01:30:38;17.60;99.90
6098;DHT22;3077;50.922;6.584;2023-07-31T01:33:05;17.60;99.90
6098;DHT22;3077;50.922;6.584;2023-07-31T01:35:34;17.60;99.90
6098;DHT22;3077;50.922;6.584;2023-07-31T01:38:00;17.60;99.90
6098;DHT22;3077;50.922;6.584;2023-07-31T01:40:25;17.60;99.90
6098;DHT22;3077;50.922;6.584;2023-07-31T01:42:51;17.70;99.90
6098;DHT22;3077;50.922;6.584;2023-07-31T01:45:16;17.70;99.90
6098;DHT22;3077;50.922;6.584;2023-07-31T01:47:42;17.80;99.90
6098;DHT22;3077;50.922;6.584;2023-07-31T01:50:08;17.70;99.90
6098;DHT22;3077;50.922;6.584;2023-07-31T01:52:34;17.70;99.90
6098;DHT22;3077;50.922;6.584;2023-07-31T01:54:59;17.80;99.90
6098;DHT22;3077;50.922;6.584;2023-07-31T01:57:25;17.80;99.90
6098;DHT22;3077;50.922;6.584;2023-07-31T01:59:50;17.80;99.90
6098;DHT22;3077;50.922;6.584;2023-07-31T02:02:18;17.80;99.90
6098;DHT22;3077;50.922;6.584;2023-07-31T02:04:44;17.80;99.90
6098;DHT22;3077;50.922;6.584;2023-07-31T02:07:10;17.80;99.90
6098;DHT22;3077;50.922;6.584;2023-07-31T02:09:35;17.80;99.90
6098;DHT22;3077;50.922;6.584;2023-07-31T02:12:01;17.80;99.90
6098;DHT22;3077;50.922;6.584;2023-07-31T02:14:27;17.90;99.90
6098;DHT22;3077;50.922;6.584;2023-07-31T02:16:52;17.90;99.90
6098;DHT22;3077;50.922;6.584;2023-07-31T02:19:18;17.90;99.90
6098;DHT22;3077;50.922;6.584;2023-07-31T02:21:43;17.90;99.90
6098;DHT22;3077;50.922;6.584;2023-07-31T02:24:09;17.80;99.90
6098;DHT22;3077;50.922;6.584;2023-07-31T02:26:35;17.90;99.90
6098;DHT22;3077;50.922;6.584;2023-07-31T02:29:00;17.80;99.90
6098;DHT22;3077;50.922;6.584;2023-07-31T02:31:26;17.90;99.90
6098;DHT22;3077;50.922;6.584;2023-07-31T02:33:52;17.80;99.90
6098;DHT22;3077;50.922;6.584;2023-07-31T02:36:17;17.90;99.90
6098;DHT22;3077;50.922;6.584;2023-07-31T02:38:43;18.00;99.90
6098;DHT22;3077;50.922;6.584;2023-07-31T02:41:08;18.00;99.90
6098;DHT22;3077;50.922;6.584;2023-07-31T02:43:34;17.90;99.90
6098;DHT22;3077;50.922;6.584;2023-07-31T02:46:00;17.90;99.90
6098;DHT22;3077;50.922;6.584;2023-07-31T02:48:25;18.00;99.90
6098;DHT22;3077;50.922;6.584;2023-07-31T02:50:51;17.90;99.90
6098;DHT22;3077;50.922;6.584;2023-07-31T02:53:16;18.00;99.90
6098;DHT22;3077;50.922;6.584;2023-07-31T02:55:42;18.00;99.90
6098;DHT22;3077;50.922;6.584;2023-07-31T02:58:07;18.10;99.90
6098;DHT22;3077;50.922;6.584;2023-07-31T03:00:33;18.00;99.90
6098;DHT22;3077;50.922;6.584;2023-07-31T03:02:59;18.10;99.90
6098;DHT22;3077;50.922;6.584;2023-07-31T03:05:24;18.00;99.90
6098;DHT22;3077;50.922;6.584;2023-07-31T03:07:50;18.10;99.90
6098;DHT22;3077;50.922;6.584;2023-07-31T03:10:15;18.10;99.90
6098;DHT22;3077;50.922;6.584;2023-07-31T03:12:41;18.00;99.90
6098;DHT22;3077;50.922;6.584;2023-07-31T03:15:07;18.10;99.90
6098;DHT22;3077;50.922;6.584;2023-07-31T03:17:33;18.10;99.90
6098;DHT22;3077;50.922;6.584;2023-07-31T03:19:58;18.10;99.90
6098;DHT22;3077;50.922;6.584;2023-07-31T03:22:24;18.10;99.90
6098;DHT22;3077;50.922;6.584;2023-07-31T03:24:49;17.90;99.90
6098;DHT22;3077;50.922;6.584;2023-07-31T03:27:15;17.80;99.90
6098;DHT22;3077;50.922;6.584;2023-07-31T03:29:40;17.70;99.90
6098;DHT22;3077;50.922;6.584;2023-07-31T03:32:06;17.70;99.90
6098;DHT22;3077;50.922;6.584;2023-07-31T03:34:32;17.60;99.90
6098;DHT22;3077;50.922;6.584;2023-07-31T03:36:58;17.60;99.90
6098;DHT22;3077;50.922;6.584;2023-07-31T03:39:23;17.60;99.90
6098;DHT22;3077;50.922;6.584;2023-07-31T03:41:49;17.60;99.90
6098;DHT22;3077;50.922;6.584;2023-07-31T03:44:15;17.50;99.90
6098;DHT22;3077;50.922;6.584;2023-07-31T03:46:40;17.60;99.90
6098;DHT22;3077;50.922;6.584;2023-07-31T03:49:06;17.60;99.90
6098;DHT22;3077;50.922;6.584;2023-07-31T03:51:31;17.70;99.90
6098;DHT22;3077;50.922;6.584;2023-07-31T03:53:57;17.60;99.90
6098;DHT22;3077;50.922;6.584;2023-07-31T03:56:22;17.70;99.90
6098;DHT22;3077;50.922;6.584;2023-07-31T03:58:48;17.70;99.90
6098;DHT22;3077;50.922;6.584;2023-07-31T04:01:13;17.60;99.90
6098;DHT22;3077;50.922;6.584;2023-07-31T04:03:39;17.70;99.90
6098;DHT22;3077;50.922;6.584;2023-07-31T04:06:05;17.70;99.90
6098;DHT22;3077;50.922;6.584;2023-07-31T04:08:32;17.70;99.90
6098;DHT22;3077;50.922;6.584;2023-07-31T04:10:57;17.70;99.90
6098;DHT22;3077;50.922;6.584;2023-07-31T04:13:23;17.70;99.90
6098;DHT22;3077;50.922;6.584;2023-07-31T04:15:49;17.80;99.90
6098;DHT22;3077;50.922;6.584;2023-07-31T04:18:20;17.80;99.90
6098;DHT22;3077;50.922;6.584;2023-07-31T04:20:45;17.90;99.90
6098;DHT22;3077;50.922;6.584;2023-07-31T04:23:11;17.90;99.90
6098;DHT22;3077;50.922;6.584;2023-07-31T04:25:36;17.90;99.90
6098;DHT22;3077;50.922;6.584;2023-07-31T04:28:02;18.00;99.90
6098;DHT22;3077;50.922;6.584;2023-07-31T04:30:28;18.10;99.90
6098;DHT22;3077;50.922;6.584;2023-07-31T04:32:53;18.10;99.90
6098;DHT22;3077;50.922;6.584;2023-07-31T04:35:19;18.10;99.90
6098;DHT22;3077;50.922;6.584;2023-07-31T04:37:44;18.20;99.90
6098;DHT22;3077;50.922;6.584;2023-07-31T04:40:14;18.20;99.90
6098;DHT22;3077;50.922;6.584;2023-07-31T04:42:39;18.20;99.90
6098;DHT22;3077;50.922;6.584;2023-07-31T04:45:05;18.20;99.90
6098;DHT22;3077;50.922;6.584;2023-07-31T04:47:31;18.20;99.90
6098;DHT22;3077;50.922;6.584;2023-07-31T04:49:56;18.30;99.90
6098;DHT22;3077;50.922;6.584;2023-07-31T04:52:22;18.40;99.90
6098;DHT22;3077;50.922;6.584;2023-07-31T04:54:47;18.40;99.90
6098;DHT22;3077;50.922;6.584;2023-07-31T04:57:14;18.40;99.90
6098;DHT22;3077;50.922;6.584;2023-07-31T04:59:40;18.40;99.90
6098;DHT22;3077;50.922;6.584;2023-07-31T05:02:06;18.40;99.90
6098;DHT22;3077;50.922;6.584;2023-07-31T05:04:32;18.50;99.90
6098;DHT22;3077;50.922;6.584;2023-07-31T05:06:58;18.50;99.90
6098;DHT22;3077;50.922;6.584;2023-07-31T05:09:23;18.50;99.90
6098;DHT22;3077;50.922;6.584;2023-07-31T05:11:49;18.60;99.90
6098;DHT22;3077;50.922;6.584;2023-07-31T05:14:14;18.60;99.90
6098;DHT22;3077;50.922;6.584;2023-07-31T05:16:41;18.70;99.90
6098;DHT22;3077;50.922;6.584;2023-07-31T05:19:06;18.70;99.90
6098;DHT22;3077;50.922;6.584;2023-07-31T05:21:32;18.70;99.90
6098;DHT22;3077;50.922;6.584;2023-07-31T05:23:58;18.70;99.90
6098;DHT22;3077;50.922;6.584;2023-07-31T05:26:23;18.70;99.90
6098;DHT22;3077;50.922;6.584;2023-07-31T05:28:49;18.70;99.90
6098;DHT22;3077;50.922;6.584;2023-07-31T05:31:14;18.70;99.90
6098;DHT22;3077;50.922;6.584;2023-07-31T05:33:40;18.70;99.90
6098;DHT22;3077;50.922;6.584;2023-07-31T05:36:06;18.70;99.90
6098;DHT22;3077;50.922;6.584;2023-07-31T05:38:31;18.70;99.90
6098;DHT22;3077;50.922;6.584;2023-07-31T05:40:57;18.60;99.90
6098;DHT22;3077;50.922;6.584;2023-07-31T05:43:22;18.60;99.90
6098;DHT22;3077;50.922;6.584;2023-07-31T05:45:48;18.60;99.90
6098;DHT22;3077;50.922;6.584;2023-07-31T05:48:14;18.70;99.90
6098;DHT22;3077;50.922;6.584;2023-07-31T05:50:39;18.70;99.90
6098;DHT22;3077;50.922;6.584;2023-07-31T05:53:05;18.60;99.90
6098;DHT22;3077;50.922;6.584;2023-07-31T05:55:32;18.60;99.90
6098;DHT22;3077;50.922;6.584;2023-07-31T05:57:57;18.60;99.90
6098;DHT22;3077;50.922;6.584;2023-07-31T06:00:23;18.40;99.90
6098;DHT22;3077;50.922;6.584;2023-07-31T06:02:49;18.40;99.90
6098;DHT22;3077;50.922;6.584;2023-07-31T06:05:14;18.30;99.90
6098;DHT22;3077;50.922;6.584;2023-07-31T06:07:40;18.20;99.90
6098;DHT22;3077;50.922;6.584;2023-07-31T06:10:06;18.10;99.90
6098;DHT22;3077;50.922;6.584;2023-07-31T06:12:32;18.10;99.90
6098;DHT22;3077;50.922;6.584;2023-07-31T06:14:58;18.00;99.90
6098;DHT22;3077;50.922;6.584;2023-07-31T06:17:24;18.10;99.90
6098;DHT22;3077;50.922;6.584;2023-07-31T06:19:50;18.00;99.90
6098;DHT22;3077;50.922;6.584;2023-07-31T06:22:16;18.00;99.90
6098;DHT22;3077;50.922;6.584;2023-07-31T06:24:41;17.90;99.90
6098;DHT22;3077;50.922;6.584;2023-07-31T06:27:07;18.00;99.90
6098;DHT22;3077;50.922;6.584;2023-07-31T06:29:33;18.00;99.90
6098;DHT22;3077;50.922;6.584;2023-07-31T06:31:59;18.00;99.90
6098;DHT22;3077;50.922;6.584;2023-07-31T06:34:24;18.10;99.90
6098;DHT22;3077;50.922;6.584;2023-07-31T06:36:50;18.20;99.90
6098;DHT22;3077;50.922;6.584;2023-07-31T06:39:15;18.20;99.90
6098;DHT22;3077;50.922;6.584;2023-07-31T06:41:42;18.30;99.90
6098;DHT22;3077;50.922;6.584;2023-07-31T06:44:08;18.40;99.90
6098;DHT22;3077;50.922;6.584;2023-07-31T06:46:34;18.40;99.90
6098;DHT22;3077;50.922;6.584;2023-07-31T06:48:59;18.50;99.90
6098;DHT22;3077;50.922;6.584;2023-07-31T06:51:25;18.50;99.90
6098;DHT22;3077;50.922;6.584;2023-07-31T06:53:50;18.60;99.90
6098;DHT22;3077;50.922;6.584;2023-07-31T06:56:16;18.60;99.90
6098;DHT22;3077;50.922;6.584;2023-07-31T06:58:41;18.60;99.90
6098;DHT22;3077;50.922;6.584;2023-07-31T07:01:07;18.70;99.90
6098;DHT22;3077;50.922;6.584;2023-07-31T07:03:33;18.80;99.90
6098;DHT22;3077;50.922;6.584;2023-07-31T07:05:58;18.80;99.90
6098;DHT22;3077;50.922;6.584;2023-07-31T07:08:24;18.70;99.90
6098;DHT22;3077;50.922;6.584;2023-07-31T07:10:50;18.70;99.90
6098;DHT22;3077;50.922;6.584;2023-07-31T07:13:16;18.70;99.90
6098;DHT22;3077;50.922;6.584;2023-07-31T07:15:47;18.70;99.90
6098;DHT22;3077;50.922;6.584;2023-07-31T07:18:13;18.70;99.90
6098;DHT22;3077;50.922;6.584;2023-07-31T07:20:39;18.70;99.90
6098;DHT22;3077;50.922;6.584;2023-07-31T07:23:05;18.60;99.90
6098;DHT22;3077;50.922;6.584;2023-07-31T07:25:30;18.50;99.90
6098;DHT22;3077;50.922;6.584;2023-07-31T07:27:56;18.50;99.90
6098;DHT22;3077;50.922;6.584;2023-07-31T07:30:22;18.60;99.90
6098;DHT22;3077;50.922;6.584;2023-07-31T07:32:49;18.60;99.90
6098;DHT22;3077;50.922;6.584;2023-07-31T07:35:14;18.50;99.90
6098;DHT22;3077;50.922;6.584;2023-07-31T07:37:40;18.50;99.90
6098;DHT22;3077;50.922;6.584;2023-07-31T07:40:06;18.40;99.90
6098;DHT22;3077;50.922;6.584;2023-07-31T07:42:32;18.20;99.90
6098;DHT22;3077;50.922;6.584;2023-07-31T07:44:58;17.90;99.90
6098;DHT22;3077;50.922;6.584;2023-07-31T07:47:23;17.80;99.90
6098;DHT22;3077;50.922;6.584;2023-07-31T07:49:49;17.60;99.90
6098;DHT22;3077;50.922;6.584;2023-07-31T07:52:14;17.60;99.90
6098;DHT22;3077;50.922;6.584;2023-07-31T07:54:40;17.50;99.90
6098;DHT22;3077;50.922;6.584;2023-07-31T07:57:06;17.40;99.90
6098;DHT22;3077;50.922;6.584;2023-07-31T07:59:31;17.40;99.90
6098;DHT22;3077;50.922;6.584;2023-07-31T08:01:57;17.40;99.90
6098;DHT22;3077;50.922;6.584;2023-07-31T08:04:23;17.40;99.90
6098;DHT22;3077;50.922;6.584;2023-07-31T08:06:48;17.50;99.90
6098;DHT22;3077;50.922;6.584;2023-07-31T08:09:14;17.60;99.90
6098;DHT22;3077;50.922;6.584;2023-07-31T08:11:39;17.70;99.90
6098;DHT22;3077;50.922;6.584;2023-07-31T08:14:05;17.90;99.90
6098;DHT22;3077;50.922;6.584;2023-07-31T08:16:31;17.90;99.90
6098;DHT22;3077;50.922;6.584;2023-07-31T08:18:56;18.00;99.90
6098;DHT22;3077;50.922;6.584;2023-07-31T08:21:22;18.10;99.90
6098;DHT22;3077;50.922;6.584;2023-07-31T08:23:48;18.30;99.90
6098;DHT22;3077;50.922;6.584;2023-07-31T08:26:18;18.30;99.90
6098;DHT22;3077;50.922;6.584;2023-07-31T08:28:44;18.30;99.90
6098;DHT22;3077;50.922;6.584;2023-07-31T08:31:10;18.40;99.90
6098;DHT22;3077;50.922;6.584;2023-07-31T08:33:36;18.40;99.90
6098;DHT22;3077;50.922;6.584;2023-07-31T08:36:02;18.50;99.90
6098;DHT22;3077;50.922;6.584;2023-07-31T08:38:28;18.50;99.90
6098;DHT22;3077;50.922;6.584;2023-07-31T08:40:56;18.50;99.90
6098;DHT22;3077;50.922;6.584;2023-07-31T08:43:27;18.50;99.90
6098;DHT22;3077;50.922;6.584;2023-07-31T08:45:53;18.50;99.90
6098;DHT22;3077;50.922;6.584;2023-07-31T08:48:21;18.50;99.90
6098;DHT22;3077;50.922;6.584;2023-07-31T08:50:47;18.50;99.90
6098;DHT22;3077;50.922;6.584;2023-07-31T08:53:12;18.50;99.90
6098;DHT22;3077;50.922;6.584;2023-07-31T08:55:38;18.50;99.90
6098;DHT22;3077;50.922;6.584;2023-07-31T08:58:04;18.50;99.90
6098;DHT22;3077;50.922;6.584;2023-07-31T09:00:31;18.40;99.90
6098;DHT22;3077;50.922;6.584;2023-07-31T09:03:08;18.40;99.90
6098;DHT22;3077;50.922;6.584;2023-07-31T09:05:36;18.30;99.90
6098;DHT22;3077;50.922;6.584;2023-07-31T09:08:05;18.40;99.90
6098;DHT22;3077;50.922;6.584;2023-07-31T09:10:31;18.50;99.90
6098;DHT22;3077;50.922;6.584;2023-07-31T09:12:57;18.60;99.90
6098;DHT22;3077;50.922;6.584;2023-07-31T09:15:24;18.70;99.90
6098;DHT22;3077;50.922;6.584;2023-07-31T09:17:59;18.80;99.90
6098;DHT22;3077;50.922;6.584;2023-07-31T09:20:25;19.00;99.90
6098;DHT22;3077;50.922;6.584;2023-07-31T09:22:51;19.10;99.90
6098;DHT22;3077;50.922;6.584;2023-07-31T09:25:24;19.20;99.90
6098;DHT22;3077;50.922;6.584;2023-07-31T09:28:01;19.20;99.90
6098;DHT22;3077;50.922;6.584;2023-07-31T09:30:28;19.20;99.90
6098;DHT22;3077;50.922;6.584;2023-07-31T09:33:06;19.20;99.90
6098;DHT22;3077;50.922;6.584;2023-07-31T09:35:35;19.30;99.90
6098;DHT22;3077;50.922;6.584;2023-07-31T09:38:05;19.40;99.90
6098;DHT22;3077;50.922;6.584;2023-07-31T09:40:33;19.40;99.90
6098;DHT22;3077;50.922;6.584;2023-07-31T09:43:03;19.50;99.90
6098;DHT22;3077;50.922;6.584;2023-07-31T09:45:29;19.60;99.90
6098;DHT22;3077;50.922;6.584;2023-07-31T09:47:56;19.70;99.90
6098;DHT22;3077;50.922;6.584;2023-07-31T09:50:24;19.80;99.90
6098;DHT22;3077;50.922;6.584;2023-07-31T09:52:51;19.80;99.90
6098;DHT22;3077;50.922;6.584;2023-07-31T09:55:18;19.80;99.90
6098;DHT22;3077;50.922;6.584;2023-07-31T09:57:48;19.80;99.90
6098;DHT22;3077;50.922;6.584;2023-07-31T10:00:16;19.80;99.90
6098;DHT22;3077;50.922;6.584;2023-07-31T10:02:45;19.80;99.90
6098;DHT22;3077;50.922;6.584;2023-07-31T10:05:15;19.80;99.90
6098;DHT22;3077;50.922;6.584;2023-07-31T10:07:51;19.70;99.90
6098;DHT22;3077;50.922;6.584;2023-07-31T10:10:17;19.70;99.90
6098;DHT22;3077;50.922;6.584;2023-07-31T10:12:46;19.70;99.90
6098;DHT22;3077;50.922;6.584;2023-07-31T10:15:15;19.80;99.90
6098;DHT22;3077;50.922;6.584;2023-07-31T10:17:40;19.90;99.90
6098;DHT22;3077;50.922;6.584;2023-07-31T10:20:07;20.00;99.90
6098;DHT22;3077;50.922;6.584;2023-07-31T10:22:33;19.90;99.90
6098;DHT22;3077;50.922;6.584;2023-07-31T10:25:00;19.90;99.90
6098;DHT22;3077;50.922;6.584;2023-07-31T10:27:26;19.90;99.90
6098;DHT22;3077;50.922;6.584;2023-07-31T10:29:56;19.90;99.90
6098;DHT22;3077;50.922;6.584;2023-07-31T10:32:23;20.00;99.90
6098;DHT22;3077;50.922;6.584;2023-07-31T10:34:50;20.00;99.90
6098;DHT22;3077;50.922;6.584;2023-07-31T10:39:58;19.90;99.90
6098;DHT22;3077;50.922;6.584;2023-07-31T10:44:58;19.80;99.90
6098;DHT22;3077;50.922;6.584;2023-07-31T10:47:24;19.90;99.90
6098;DHT22;3077;50.922;6.584;2023-07-31T10:49:49;19.90;99.90
6098;DHT22;3077;50.922;6.584;2023-07-31T10:52:20;20.00;99.90
6098;DHT22;3077;50.922;6.584;2023-07-31T10:54:49;20.00;99.90
6098;DHT22;3077;50.922;6.584;2023-07-31T10:57:22;20.10;99.90
6098;DHT22;3077;50.922;6.584;2023-07-31T10:59:49;20.10;99.90
6098;DHT22;3077;50.922;6.584;2023-07-31T11:02:26;20.10;99.90
6098;DHT22;3077;50.922;6.584;2023-07-31T11:05:08;20.10;99.90
6098;DHT22;3077;50.922;6.584;2023-07-31T11:07:50;20.20;99.90
6098;DHT22;3077;50.922;6.584;2023-07-31T11:10:18;20.30;99.90
6098;DHT22;3077;50.922;6.584;2023-07-31T11:12:45;20.40;99.90
6098;DHT22;3077;50.922;6.584;2023-07-31T11:15:12;20.50;99.90
6098;DHT22;3077;50.922;6.584;2023-07-31T11:17:40;20.60;99.90
6098;DHT22;3077;50.922;6.584;2023-07-31T11:20:07;20.70;99.90
6098;DHT22;3077;50.922;6.584;2023-07-31T11:22:37;20.70;99.90
6098;DHT22;3077;50.922;6.584;2023-07-31T11:25:03;20.60;99.90
6098;DHT22;3077;50.922;6.584;2023-07-31T11:27:29;20.70;99.90
6098;DHT22;3077;50.922;6.584;2023-07-31T11:30:02;20.80;99.90
6098;DHT22;3077;50.922;6.584;2023-07-31T11:32:28;20.90;99.90
6098;DHT22;3077;50.922;6.584;2023-07-31T11:34:54;21.00;99.90
6098;DHT22;3077;50.922;6.584;2023-07-31T11:37:20;21.10;99.90
6098;DHT22;3077;50.922;6.584;2023-07-31T11:40:01;21.30;99.90
6098;DHT22;3077;50.922;6.584;2023-07-31T11:42:27;21.10;99.90
6098;DHT22;3077;50.922;6.584;2023-07-31T11:44:52;21.00;99.90
6098;DHT22;3077;50.922;6.584;2023-07-31T11:47:18;21.00;99.90
6098;DHT22;3077;50.922;6.584;2023-07-31T11:49:43;20.70;99.90
6098;DHT22;3077;50.922;6.584;2023-07-31T11:52:09;20.60;99.90
6098;DHT22;3077;50.922;6.584;2023-07-31T11:54:36;20.50;99.90
6098;DHT22;3077;50.922;6.584;2023-07-31T11:57:02;20.50;99.90
6098;DHT22;3077;50.922;6.584;2023-07-31T11:59:28;20.50;99.90
6098;DHT22;3077;50.922;6.584;2023-07-31T12:01:54;20.40;99.90
6098;DHT22;3077;50.922;6.584;2023-07-31T12:04:20;20.40;99.90
6098;DHT22;3077;50.922;6.584;2023-07-31T12:06:47;20.30;99.90
6098;DHT22;3077;50.922;6.584;2023-07-31T12:09:14;20.30;99.90
6098;DHT22;3077;50.922;6.584;2023-07-31T12:11:44;20.20;99.90
6098;DHT22;3077;50.922;6.584;2023-07-31T12:14:29;20.20;99.90
6098;DHT22;3077;50.922;6.584;2023-07-31T12:16:55;20.20;99.90
6098;DHT22;3077;50.922;6.584;2023-07-31T12:19:22;20.10;99.90
6098;DHT22;3077;50.922;6.584;2023-07-31T12:21:48;20.00;99.90
6098;DHT22;3077;50.922;6.584;2023-07-31T12:24:13;20.10;99.90
6098;DHT22;3077;50.922;6.584;2023-07-31T12:26:39;20.10;99.90
6098;DHT22;3077;50.922;6.584;2023-07-31T12:29:07;20.10;99.90
6098;DHT22;3077;50.922;6.584;2023-07-31T12:31:33;20.10;99.90
6098;DHT22;3077;50.922;6.584;2023-07-31T12:33:59;20.10;99.90
6098;DHT22;3077;50.922;6.584;2023-07-31T12:36:26;20.10;99.90
6098;DHT22;3077;50.922;6.584;2023-07-31T12:38:54;20.20;99.90
6098;DHT22;3077;50.922;6.584;2023-07-31T12:41:21;20.30;99.90
6098;DHT22;3077;50.922;6.584;2023-07-31T12:43:47;20.30;99.90
6098;DHT22;3077;50.922;6.584;2023-07-31T12:46:12;20.40;99.90
6098;DHT22;3077;50.922;6.584;2023-07-31T12:48:39;20.40;99.90
6098;DHT22;3077;50.922;6.584;2023-07-31T12:51:05;20.30;99.90
6098;DHT22;3077;50.922;6.584;2023-07-31T12:53:32;20.30;99.90
6098;DHT22;3077;50.922;6.584;2023-07-31T12:55:58;20.30;99.90
6098;DHT22;3077;50.922;6.584;2023-07-31T12:58:24;20.20;99.90
6098;DHT22;3077;50.922;6.584;2023-07-31T13:00:49;20.30;99.90
6098;DHT22;3077;50.922;6.584;2023-07-31T13:03:15;20.40;99.90
6098;DHT22;3077;50.922;6.584;2023-07-31T13:05:41;20.50;99.90
6098;DHT22;3077;50.922;6.584;2023-07-31T13:08:07;20.50;99.90
6098;DHT22;3077;50.922;6.584;2023-07-31T13:10:33;20.60;99.90
6098;DHT22;3077;50.922;6.584;2023-07-31T13:12:58;20.80;99.90
6098;DHT22;3077;50.922;6.584;2023-07-31T13:15:24;20.90;99.90
6098;DHT22;3077;50.922;6.584;2023-07-31T13:17:50;21.20;99.90
6098;DHT22;3077;50.922;6.584;2023-07-31T13:20:19;21.30;99.90
6098;DHT22;3077;50.922;6.584;2023-07-31T13:22:45;21.60;99.90
6098;DHT22;3077;50.922;6.584;2023-07-31T13:25:11;21.70;99.90
6098;DHT22;3077;50.922;6.584;2023-07-31T13:27:37;21.80;99.90
6098;DHT22;3077;50.922;6.584;2023-07-31T13:30:06;21.90;99.90
6098;DHT22;3077;50.922;6.584;2023-07-31T13:32:41;20.90;99.90
6098;DHT22;3077;50.922;6.584;2023-07-31T13:35:08;22.20;99.90
6098;DHT22;3077;50.922;6.584;2023-07-31T13:37:44;22.50;99.90
6098;DHT22;3077;50.922;6.584;2023-07-31T13:40:10;23.50;99.90
6098;DHT22;3077;50.922;6.584;2023-07-31T13:42:36;23.10;99.90
6098;DHT22;3077;50.922;6.584;2023-07-31T13:47:39;24.20;99.90
6098;DHT22;3077;50.922;6.584;2023-07-31T13:50:11;24.80;99.90
6098;DHT22;3077;50.922;6.584;2023-07-31T13:52:41;25.30;99.90
6098;DHT22;3077;50.922;6.584;2023-07-31T13:55:09;26.50;99.90
6098;DHT22;3077;50.922;6.584;2023-07-31T13:57:35;24.70;99.90
6098;DHT22;3077;50.922;6.584;2023-07-31T14:00:01;24.30;99.90
6098;DHT22;3077;50.922;6.584;2023-07-31T14:02:30;24.00;99.90
6098;DHT22;3077;50.922;6.584;2023-07-31T14:04:58;23.50;99.90
6098;DHT22;3077;50.922;6.584;2023-07-31T14:07:24;23.00;99.90
6098;DHT22;3077;50.922;6.584;2023-07-31T14:09:50;22.50;99.90
6098;DHT22;3077;50.922;6.584;2023-07-31T14:12:16;22.30;99.90
6098;DHT22;3077;50.922;6.584;2023-07-31T14:14:42;22.10;99.90
6098;DHT22;3077;50.922;6.584;2023-07-31T14:17:08;21.90;99.90
6098;DHT22;3077;50.922;6.584;2023-07-31T14:19:34;21.60;99.90
6098;DHT22;3077;50.922;6.584;2023-07-31T14:22:00;21.60;99.90
6098;DHT22;3077;50.922;6.584;2023-07-31T14:24:26;21.70;99.90
6098;DHT22;3077;50.922;6.584;2023-07-31T14:26:51;21.80;99.90
6098;DHT22;3077;50.922;6.584;2023-07-31T14:29:17;21.80;99.90
6098;DHT22;3077;50.922;6.584;2023-07-31T14:31:42;22.00;99.90
6098;DHT22;3077;50.922;6.584;2023-07-31T14:34:08;22.10;99.90
6098;DHT22;3077;50.922;6.584;2023-07-31T14:36:34;22.00;99.90
6098;DHT22;3077;50.922;6.584;2023-07-31T14:39:02;22.00;99.90
6098;DHT22;3077;50.922;6.584;2023-07-31T14:41:27;22.00;99.90
6098;DHT22;3077;50.922;6.584;2023-07-31T14:43:53;21.90;99.90
6098;DHT22;3077;50.922;6.584;2023-07-31T14:46:19;21.80;99.90
6098;DHT22;3077;50.922;6.584;2023-07-31T14:48:45;21.60;99.90
6098;DHT22;3077;50.922;6.584;2023-07-31T14:51:11;21.60;99.90
6098;DHT22;3077;50.922;6.584;2023-07-31T14:56:03;22.40;99.90
6098;DHT22;3077;50.922;6.584;2023-07-31T14:58:28;21.50;99.90
6098;DHT22;3077;50.922;6.584;2023-07-31T15:00:54;21.60;99.90
6098;DHT22;3077;50.922;6.584;2023-07-31T15:03:19;21.50;99.90
6098;DHT22;3077;50.922;6.584;2023-07-31T15:05:45;21.50;99.90
6098;DHT22;3077;50.922;6.584;2023-07-31T15:08:11;21.40;99.90
6098;DHT22;3077;50.922;6.584;2023-07-31T15:10:36;21.40;99.90
6098;DHT22;3077;50.922;6.584;2023-07-31T15:13:02;21.30;99.90
6098;DHT22;3077;50.922;6.584;2023-07-31T15:15:28;21.20;99.90
6098;DHT22;3077;50.922;6.584;2023-07-31T15:17:53;21.20;99.90
6098;DHT22;3077;50.922;6.584;2023-07-31T15:20:20;21.20;99.90
6098;DHT22;3077;50.922;6.584;2023-07-31T15:22:46;21.20;99.90
6098;DHT22;3077;50.922;6.584;2023-07-31T15:25:11;21.30;99.90
6098;DHT22;3077;50.922;6.584;2023-07-31T15:27:37;21.30;99.90
6098;DHT22;3077;50.922;6.584;2023-07-31T15:30:03;21.20;99.90
6098;DHT22;3077;50.922;6.584;2023-07-31T15:32:30;21.10;99.90
6098;DHT22;3077;50.922;6.584;2023-07-31T15:34:56;21.00;99.90
6098;DHT22;3077;50.922;6.584;2023-07-31T15:37:22;20.90;99.90
6098;DHT22;3077;50.922;6.584;2023-07-31T15:39:47;20.70;99.90
6098;DHT22;3077;50.922;6.584;2023-07-31T15:42:13;20.40;99.90
6098;DHT22;3077;50.922;6.584;2023-07-31T15:44:38;20.10;99.90
6098;DHT22;3077;50.922;6.584;2023-07-31T15:47:04;19.70;99.90
6098;DHT22;3077;50.922;6.584;2023-07-31T15:49:30;19.30;99.90
6098;DHT22;3077;50.922;6.584;2023-07-31T15:51:56;19.00;99.90
6098;DHT22;3077;50.922;6.584;2023-07-31T15:54:21;18.90;99.90
6098;DHT22;3077;50.922;6.584;2023-07-31T15:56:47;18.80;99.90
6098;DHT22;3077;50.922;6.584;2023-07-31T15:59:12;18.80;99.90
6098;DHT22;3077;50.922;6.584;2023-07-31T16:01:38;18.80;99.90
6098;DHT22;3077;50.922;6.584;2023-07-31T16:04:03;18.80;99.90
6098;DHT22;3077;50.922;6.584;2023-07-31T16:06:29;18.80;99.90
6098;DHT22;3077;50.922;6.584;2023-07-31T16:08:55;18.70;99.90
6098;DHT22;3077;50.922;6.584;2023-07-31T16:11:21;18.70;99.90
6098;DHT22;3077;50.922;6.584;2023-07-31T16:13:46;18.50;99.90